sensor_id;sensor_type;location;lat;lon;timestamp;P1;durP1;ratioP1;P2;durP2;ratioP2
16600;SDS011;34891;48.164;11.572;2022-10-22T00:02:47;4.00;;;1.67;;
16600;SDS011;34891;48.164;11.572;2022-10-22T00:07:50;3.60;;;1.57;;
16600;SDS011;34891;48.164;11.572;2022-10-22T00:12:54;2.97;;;1.70;;
16600;SDS011;34891;48.164;11.572;2022-10-22T00:17:57;3.75;;;2.08;;
16600;SDS011;34891;48.164;11.572;2022-10-22T00:23:00;3.00;;;1.40;;
16600;SDS011;34891;48.164;11.572;2022-10-22T00:28:04;3.93;;;1.70;;
16600;SDS011;34891;48.164;11.572;2022-10-22T00:33:07;5.75;;;1.90;;
16600;SDS011;34891;48.164;11.572;2022-10-22T00:38:10;3.25;;;1.70;;
16600;SDS011;34891;48.164;11.572;2022-10-22T00:43:14;4.30;;;1.73;;
16600;SDS011;34891;48.164;11.572;2022-10-22T00:48:19;3.22;;;1.55;;
16600;SDS011;34891;48.164;11.572;2022-10-22T00:53:27;1.38;;;1.10;;
16600;SDS011;34891;48.164;11.572;2022-10-22T00:58:33;3.20;;;0.88;;
16600;SDS011;34891;48.164;11.572;2022-10-22T01:03:36;4.85;;;1.40;;
16600;SDS011;34891;48.164;11.572;2022-10-22T01:08:41;2.77;;;0.90;;
16600;SDS011;34891;48.164;11.572;2022-10-22T01:13:48;3.20;;;1.10;;
16600;SDS011;34891;48.164;11.572;2022-10-22T01:18:56;2.72;;;0.68;;
16600;SDS011;34891;48.164;11.572;2022-10-22T01:24:16;1.98;;;1.00;;
16600;SDS011;34891;48.164;11.572;2022-10-22T01:29:23;2.53;;;1.00;;
16600;SDS011;34891;48.164;11.572;2022-10-22T01:34:28;3.13;;;0.57;;
16600;SDS011;34891;48.164;11.572;2022-10-22T01:44:35;0.93;;;0.47;;
16600;SDS011;34891;48.164;11.572;2022-10-22T01:49:43;4.82;;;1.00;;
16600;SDS011;34891;48.164;11.572;2022-10-22T01:54:50;2.38;;;0.80;;
16600;SDS011;34891;48.164;11.572;2022-10-22T01:59:56;2.88;;;1.05;;
16600;SDS011;34891;48.164;11.572;2022-10-22T02:05:02;1.20;;;0.85;;
16600;SDS011;34891;48.164;11.572;2022-10-22T02:10:07;0.40;;;0.40;;
16600;SDS011;34891;48.164;11.572;2022-10-22T02:15:12;1.05;;;0.63;;
16600;SDS011;34891;48.164;11.572;2022-10-22T02:20:16;2.83;;;0.85;;
16600;SDS011;34891;48.164;11.572;2022-10-22T02:25:20;3.97;;;1.08;;
16600;SDS011;34891;48.164;11.572;2022-10-22T02:30:24;4.15;;;0.80;;
16600;SDS011;34891;48.164;11.572;2022-10-22T02:35:27;1.60;;;0.90;;
16600;SDS011;34891;48.164;11.572;2022-10-22T02:40:30;2.05;;;0.80;;
16600;SDS011;34891;48.164;11.572;2022-10-22T02:45:35;1.50;;;0.67;;
16600;SDS011;34891;48.164;11.572;2022-10-22T02:50:38;3.25;;;0.90;;
16600;SDS011;34891;48.164;11.572;2022-10-22T02:55:40;1.73;;;0.70;;
16600;SDS011;34891;48.164;11.572;2022-10-22T03:00:44;3.72;;;0.90;;
16600;SDS011;34891;48.164;11.572;2022-10-22T03:05:48;3.17;;;0.90;;
16600;SDS011;34891;48.164;11.572;2022-10-22T03:10:51;1.30;;;0.80;;
16600;SDS011;34891;48.164;11.572;2022-10-22T03:15:55;1.38;;;0.93;;
16600;SDS011;34891;48.164;11.572;2022-10-22T03:21:03;2.80;;;0.90;;
16600;SDS011;34891;48.164;11.572;2022-10-22T03:26:07;1.88;;;0.60;;
16600;SDS011;34891;48.164;11.572;2022-10-22T03:31:12;1.43;;;0.73;;
16600;SDS011;34891;48.164;11.572;2022-10-22T03:36:14;2.60;;;0.88;;
16600;SDS011;34891;48.164;11.572;2022-10-22T03:41:17;1.85;;;0.90;;
16600;SDS011;34891;48.164;11.572;2022-10-22T03:46:21;1.30;;;0.70;;
16600;SDS011;34891;48.164;11.572;2022-10-22T03:56:26;2.88;;;1.00;;
16600;SDS011;34891;48.164;11.572;2022-10-22T04:01:30;0.75;;;0.50;;
16600;SDS011;34891;48.164;11.572;2022-10-22T04:06:33;1.30;;;0.50;;
16600;SDS011;34891;48.164;11.572;2022-10-22T04:11:35;4.60;;;0.90;;
16600;SDS011;34891;48.164;11.572;2022-10-22T04:16:45;0.75;;;0.75;;
16600;SDS011;34891;48.164;11.572;2022-10-22T04:21:49;0.38;;;0.30;;
16600;SDS011;34891;48.164;11.572;2022-10-22T04:26:52;2.38;;;0.88;;
16600;SDS011;34891;48.164;11.572;2022-10-22T04:31:56;0.50;;;0.30;;
16600;SDS011;34891;48.164;11.572;2022-10-22T04:36:59;0.65;;;0.47;;
16600;SDS011;34891;48.164;11.572;2022-10-22T04:42:02;1.40;;;0.63;;
16600;SDS011;34891;48.164;11.572;2022-10-22T04:47:06;2.35;;;0.70;;
16600;SDS011;34891;48.164;11.572;2022-10-22T04:52:09;0.57;;;0.28;;
16600;SDS011;34891;48.164;11.572;2022-10-22T04:57:12;0.60;;;0.60;;
16600;SDS011;34891;48.164;11.572;2022-10-22T05:02:17;0.63;;;0.40;;
16600;SDS011;34891;48.164;11.572;2022-10-22T05:07:23;0.30;;;0.30;;
16600;SDS011;34891;48.164;11.572;2022-10-22T05:12:26;0.88;;;0.57;;
16600;SDS011;34891;48.164;11.572;2022-10-22T05:17:31;1.98;;;0.25;;
16600;SDS011;34891;48.164;11.572;2022-10-22T05:22:36;0.10;;;0.10;;
16600;SDS011;34891;48.164;11.572;2022-10-22T05:27:39;0.40;;;0.38;;
16600;SDS011;34891;48.164;11.572;2022-10-22T05:32:43;0.20;;;0.20;;
16600;SDS011;34891;48.164;11.572;2022-10-22T05:37:46;0.30;;;0.10;;
16600;SDS011;34891;48.164;11.572;2022-10-22T05:42:48;0.65;;;0.28;;
16600;SDS011;34891;48.164;11.572;2022-10-22T05:47:53;0.17;;;0.17;;
16600;SDS011;34891;48.164;11.572;2022-10-22T05:52:56;0.20;;;0.20;;
16600;SDS011;34891;48.164;11.572;2022-10-22T05:58:00;1.03;;;0.30;;
16600;SDS011;34891;48.164;11.572;2022-10-22T06:03:04;0.50;;;0.43;;
16600;SDS011;34891;48.164;11.572;2022-10-22T06:08:08;2.20;;;0.30;;
16600;SDS011;34891;48.164;11.572;2022-10-22T06:13:19;0.35;;;0.32;;
16600;SDS011;34891;48.164;11.572;2022-10-22T06:18:24;2.08;;;0.30;;
16600;SDS011;34891;48.164;11.572;2022-10-22T06:23:30;0.75;;;0.45;;
16600;SDS011;34891;48.164;11.572;2022-10-22T06:28:34;3.30;;;0.50;;
16600;SDS011;34891;48.164;11.572;2022-10-22T06:33:39;1.90;;;0.50;;
16600;SDS011;34891;48.164;11.572;2022-10-22T06:38:43;1.27;;;0.20;;
16600;SDS011;34891;48.164;11.572;2022-10-22T06:43:46;1.08;;;0.40;;
16600;SDS011;34891;48.164;11.572;2022-10-22T06:48:51;0.55;;;0.32;;
16600;SDS011;34891;48.164;11.572;2022-10-22T06:53:55;0.75;;;0.25;;
16600;SDS011;34891;48.164;11.572;2022-10-22T06:58:59;0.43;;;0.25;;
16600;SDS011;34891;48.164;11.572;2022-10-22T07:04:04;4.38;;;1.77;;
16600;SDS011;34891;48.164;11.572;2022-10-22T07:09:09;1.42;;;0.50;;
16600;SDS011;34891;48.164;11.572;2022-10-22T07:14:13;0.73;;;0.50;;
16600;SDS011;34891;48.164;11.572;2022-10-22T07:19:17;0.98;;;0.75;;
16600;SDS011;34891;48.164;11.572;2022-10-22T07:24:21;1.45;;;0.50;;
16600;SDS011;34891;48.164;11.572;2022-10-22T07:29:24;1.70;;;0.80;;
16600;SDS011;34891;48.164;11.572;2022-10-22T07:34:28;1.33;;;0.85;;
16600;SDS011;34891;48.164;11.572;2022-10-22T07:39:31;7.22;;;2.72;;
16600;SDS011;34891;48.164;11.572;2022-10-22T07:44:39;1.17;;;0.50;;
16600;SDS011;34891;48.164;11.572;2022-10-22T07:49:44;0.77;;;0.53;;
16600;SDS011;34891;48.164;11.572;2022-10-22T07:54:47;1.90;;;0.70;;
16600;SDS011;34891;48.164;11.572;2022-10-22T07:59:50;0.98;;;0.88;;
16600;SDS011;34891;48.164;11.572;2022-10-22T08:04:55;2.00;;;1.02;;
16600;SDS011;34891;48.164;11.572;2022-10-22T08:09:58;2.40;;;0.85;;
16600;SDS011;34891;48.164;11.572;2022-10-22T08:15:01;0.60;;;0.40;;
16600;SDS011;34891;48.164;11.572;2022-10-22T08:20:05;1.85;;;1.10;;
16600;SDS011;34891;48.164;11.572;2022-10-22T08:25:16;0.82;;;0.70;;
16600;SDS011;34891;48.164;11.572;2022-10-22T08:30:19;2.28;;;0.90;;
16600;SDS011;34891;48.164;11.572;2022-10-22T08:35:23;1.58;;;0.80;;
16600;SDS011;34891;48.164;11.572;2022-10-22T08:40:28;2.15;;;1.10;;
16600;SDS011;34891;48.164;11.572;2022-10-22T08:45:32;2.55;;;1.13;;
16600;SDS011;34891;48.164;11.572;2022-10-22T08:50:39;1.42;;;0.82;;
16600;SDS011;34891;48.164;11.572;2022-10-22T08:55:43;3.15;;;0.95;;
16600;SDS011;34891;48.164;11.572;2022-10-22T09:00:50;1.10;;;0.50;;
16600;SDS011;34891;48.164;11.572;2022-10-22T09:05:58;1.20;;;0.70;;
16600;SDS011;34891;48.164;11.572;2022-10-22T09:11:05;3.08;;;1.02;;
16600;SDS011;34891;48.164;11.572;2022-10-22T09:16:13;1.63;;;0.98;;
16600;SDS011;34891;48.164;11.572;2022-10-22T09:21:20;0.93;;;0.60;;
16600;SDS011;34891;48.164;11.572;2022-10-22T09:26:27;2.33;;;0.70;;
16600;SDS011;34891;48.164;11.572;2022-10-22T09:31:30;1.93;;;0.70;;
16600;SDS011;34891;48.164;11.572;2022-10-22T09:36:35;0.98;;;0.50;;
16600;SDS011;34891;48.164;11.572;2022-10-22T09:41:39;1.13;;;0.80;;
16600;SDS011;34891;48.164;11.572;2022-10-22T09:46:42;0.70;;;0.33;;
16600;SDS011;34891;48.164;11.572;2022-10-22T09:58:01;1.25;;;0.80;;
16600;SDS011;34891;48.164;11.572;2022-10-22T10:03:04;2.13;;;1.10;;
16600;SDS011;34891;48.164;11.572;2022-10-22T10:08:12;0.95;;;0.60;;
16600;SDS011;34891;48.164;11.572;2022-10-22T10:18:45;1.40;;;1.20;;
16600;SDS011;34891;48.164;11.572;2022-10-22T10:23:55;1.30;;;0.70;;
16600;SDS011;34891;48.164;11.572;2022-10-22T10:29:05;1.90;;;0.75;;
16600;SDS011;34891;48.164;11.572;2022-10-22T10:39:19;3.97;;;1.43;;
16600;SDS011;34891;48.164;11.572;2022-10-22T10:44:36;1.67;;;0.90;;
16600;SDS011;34891;48.164;11.572;2022-10-22T10:49:42;2.85;;;1.20;;
16600;SDS011;34891;48.164;11.572;2022-10-22T10:54:49;3.05;;;1.45;;
16600;SDS011;34891;48.164;11.572;2022-10-22T11:00:00;3.15;;;1.90;;
16600;SDS011;34891;48.164;11.572;2022-10-22T11:05:12;1.30;;;1.20;;
16600;SDS011;34891;48.164;11.572;2022-10-22T11:10:21;1.80;;;1.40;;
16600;SDS011;34891;48.164;11.572;2022-10-22T11:15:28;2.13;;;1.40;;
16600;SDS011;34891;48.164;11.572;2022-10-22T11:25:55;1.35;;;1.25;;
16600;SDS011;34891;48.164;11.572;2022-10-22T11:31:00;2.05;;;1.52;;
16600;SDS011;34891;48.164;11.572;2022-10-22T11:36:09;6.75;;;2.30;;
16600;SDS011;34891;48.164;11.572;2022-10-22T11:41:21;1.67;;;1.58;;
16600;SDS011;34891;48.164;11.572;2022-10-22T11:51:39;0.28;;;0.25;;
16600;SDS011;34891;48.164;11.572;2022-10-22T11:56:44;2.55;;;1.50;;
16600;SDS011;34891;48.164;11.572;2022-10-22T12:01:48;1.63;;;1.20;;
16600;SDS011;34891;48.164;11.572;2022-10-22T12:06:57;0.50;;;0.50;;
16600;SDS011;34891;48.164;11.572;2022-10-22T12:12:09;1.52;;;1.30;;
16600;SDS011;34891;48.164;11.572;2022-10-22T12:17:13;1.60;;;1.50;;
16600;SDS011;34891;48.164;11.572;2022-10-22T12:22:20;3.88;;;0.52;;
16600;SDS011;34891;48.164;11.572;2022-10-22T12:27:24;1.77;;;0.70;;
16600;SDS011;34891;48.164;11.572;2022-10-22T12:32:32;2.67;;;1.80;;
16600;SDS011;34891;48.164;11.572;2022-10-22T12:37:35;1.50;;;1.40;;
16600;SDS011;34891;48.164;11.572;2022-10-22T12:42:46;1.73;;;1.42;;
16600;SDS011;34891;48.164;11.572;2022-10-22T12:47:51;2.60;;;1.58;;
16600;SDS011;34891;48.164;11.572;2022-10-22T12:52:58;1.88;;;1.50;;
16600;SDS011;34891;48.164;11.572;2022-10-22T12:58:05;3.22;;;1.60;;
16600;SDS011;34891;48.164;11.572;2022-10-22T13:03:09;2.00;;;0.88;;
16600;SDS011;34891;48.164;11.572;2022-10-22T13:08:20;1.50;;;1.40;;
16600;SDS011;34891;48.164;11.572;2022-10-22T13:13:41;2.83;;;1.58;;
16600;SDS011;34891;48.164;11.572;2022-10-22T13:18:49;2.30;;;2.08;;
16600;SDS011;34891;48.164;11.572;2022-10-22T13:23:53;4.90;;;1.80;;
16600;SDS011;34891;48.164;11.572;2022-10-22T13:28:58;2.42;;;1.60;;
16600;SDS011;34891;48.164;11.572;2022-10-22T13:34:03;2.13;;;1.45;;
16600;SDS011;34891;48.164;11.572;2022-10-22T13:39:15;1.83;;;1.50;;
16600;SDS011;34891;48.164;11.572;2022-10-22T13:44:22;1.58;;;1.48;;
16600;SDS011;34891;48.164;11.572;2022-10-22T13:49:25;1.25;;;1.17;;
16600;SDS011;34891;48.164;11.572;2022-10-22T13:54:29;2.08;;;1.30;;
16600;SDS011;34891;48.164;11.572;2022-10-22T13:59:33;2.05;;;1.38;;
16600;SDS011;34891;48.164;11.572;2022-10-22T14:04:38;1.30;;;1.20;;
16600;SDS011;34891;48.164;11.572;2022-10-22T14:09:42;5.13;;;1.98;;
16600;SDS011;34891;48.164;11.572;2022-10-22T14:14:47;1.10;;;0.70;;
16600;SDS011;34891;48.164;11.572;2022-10-22T14:19:51;2.28;;;1.25;;
16600;SDS011;34891;48.164;11.572;2022-10-22T14:24:54;3.20;;;0.98;;
16600;SDS011;34891;48.164;11.572;2022-10-22T14:30:05;3.35;;;1.27;;
16600;SDS011;34891;48.164;11.572;2022-10-22T14:35:09;4.38;;;0.88;;
16600;SDS011;34891;48.164;11.572;2022-10-22T14:40:14;2.67;;;1.08;;
16600;SDS011;34891;48.164;11.572;2022-10-22T14:45:20;1.70;;;1.00;;
16600;SDS011;34891;48.164;11.572;2022-10-22T14:50:24;3.80;;;0.82;;
16600;SDS011;34891;48.164;11.572;2022-10-22T14:55:27;1.45;;;0.90;;
16600;SDS011;34891;48.164;11.572;2022-10-22T15:00:31;3.95;;;1.20;;
16600;SDS011;34891;48.164;11.572;2022-10-22T15:05:35;1.10;;;0.88;;
16600;SDS011;34891;48.164;11.572;2022-10-22T15:10:42;2.40;;;0.90;;
16600;SDS011;34891;48.164;11.572;2022-10-22T15:15:47;1.92;;;0.90;;
16600;SDS011;34891;48.164;11.572;2022-10-22T15:20:53;3.65;;;1.13;;
16600;SDS011;34891;48.164;11.572;2022-10-22T15:25:57;1.80;;;1.05;;
16600;SDS011;34891;48.164;11.572;2022-10-22T15:31:01;3.83;;;1.20;;
16600;SDS011;34891;48.164;11.572;2022-10-22T15:36:09;6.25;;;2.80;;
16600;SDS011;34891;48.164;11.572;2022-10-22T15:46:41;3.33;;;1.80;;
16600;SDS011;34891;48.164;11.572;2022-10-22T15:51:45;3.75;;;1.70;;
16600;SDS011;34891;48.164;11.572;2022-10-22T15:56:48;3.97;;;1.50;;
16600;SDS011;34891;48.164;11.572;2022-10-22T16:01:54;3.28;;;1.33;;
16600;SDS011;34891;48.164;11.572;2022-10-22T16:06:57;2.80;;;1.33;;
16600;SDS011;34891;48.164;11.572;2022-10-22T16:17:05;7.25;;;2.50;;
16600;SDS011;34891;48.164;11.572;2022-10-22T16:22:08;6.07;;;2.88;;
16600;SDS011;34891;48.164;11.572;2022-10-22T16:27:14;6.88;;;2.40;;
16600;SDS011;34891;48.164;11.572;2022-10-22T16:32:19;9.75;;;2.55;;
16600;SDS011;34891;48.164;11.572;2022-10-22T16:37:23;8.32;;;2.05;;
16600;SDS011;34891;48.164;11.572;2022-10-22T16:42:26;5.03;;;2.30;;
16600;SDS011;34891;48.164;11.572;2022-10-22T16:47:31;6.85;;;2.40;;
16600;SDS011;34891;48.164;11.572;2022-10-22T16:52:34;8.68;;;3.50;;
16600;SDS011;34891;48.164;11.572;2022-10-22T16:57:37;9.20;;;3.60;;
16600;SDS011;34891;48.164;11.572;2022-10-22T17:02:45;14.02;;;5.28;;
16600;SDS011;34891;48.164;11.572;2022-10-22T17:07:52;14.43;;;5.35;;
16600;SDS011;34891;48.164;11.572;2022-10-22T17:12:56;6.22;;;2.92;;
16600;SDS011;34891;48.164;11.572;2022-10-22T17:18:00;6.50;;;2.60;;
16600;SDS011;34891;48.164;11.572;2022-10-22T17:23:04;7.47;;;3.28;;
16600;SDS011;34891;48.164;11.572;2022-10-22T17:28:07;7.47;;;3.30;;
16600;SDS011;34891;48.164;11.572;2022-10-22T17:33:11;9.98;;;3.92;;
16600;SDS011;34891;48.164;11.572;2022-10-22T17:38:14;10.30;;;3.72;;
16600;SDS011;34891;48.164;11.572;2022-10-22T17:43:16;9.82;;;3.92;;
16600;SDS011;34891;48.164;11.572;2022-10-22T17:48:21;7.72;;;3.22;;
16600;SDS011;34891;48.164;11.572;2022-10-22T17:53:23;14.90;;;5.30;;
16600;SDS011;34891;48.164;11.572;2022-10-22T17:58:27;13.70;;;5.20;;
16600;SDS011;34891;48.164;11.572;2022-10-22T18:03:32;16.80;;;6.40;;
16600;SDS011;34891;48.164;11.572;2022-10-22T18:08:35;14.85;;;6.30;;
16600;SDS011;34891;48.164;11.572;2022-10-22T18:13:40;14.30;;;6.10;;
16600;SDS011;34891;48.164;11.572;2022-10-22T18:18:45;11.02;;;5.38;;
16600;SDS011;34891;48.164;11.572;2022-10-22T18:23:48;12.25;;;5.32;;
16600;SDS011;34891;48.164;11.572;2022-10-22T18:28:51;12.60;;;6.37;;
16600;SDS011;34891;48.164;11.572;2022-10-22T18:33:56;11.68;;;4.57;;
16600;SDS011;34891;48.164;11.572;2022-10-22T18:39:00;12.65;;;5.55;;
16600;SDS011;34891;48.164;11.572;2022-10-22T18:44:04;14.40;;;5.90;;
16600;SDS011;34891;48.164;11.572;2022-10-22T18:49:09;14.48;;;5.35;;
16600;SDS011;34891;48.164;11.572;2022-10-22T18:54:15;16.00;;;6.10;;
16600;SDS011;34891;48.164;11.572;2022-10-22T18:59:24;14.70;;;5.03;;
16600;SDS011;34891;48.164;11.572;2022-10-22T19:04:29;13.95;;;5.70;;
16600;SDS011;34891;48.164;11.572;2022-10-22T19:09:38;17.10;;;5.88;;
16600;SDS011;34891;48.164;11.572;2022-10-22T19:14:41;13.63;;;5.97;;
16600;SDS011;34891;48.164;11.572;2022-10-22T19:19:45;24.70;;;7.28;;
16600;SDS011;34891;48.164;11.572;2022-10-22T19:24:48;15.65;;;6.97;;
16600;SDS011;34891;48.164;11.572;2022-10-22T19:29:52;14.00;;;5.07;;
16600;SDS011;34891;48.164;11.572;2022-10-22T19:34:56;10.15;;;4.28;;
16600;SDS011;34891;48.164;11.572;2022-10-22T19:39:59;8.88;;;3.75;;
16600;SDS011;34891;48.164;11.572;2022-10-22T19:45:02;9.73;;;4.32;;
16600;SDS011;34891;48.164;11.572;2022-10-22T19:50:07;12.10;;;4.47;;
16600;SDS011;34891;48.164;11.572;2022-10-22T19:55:13;7.88;;;3.35;;
16600;SDS011;34891;48.164;11.572;2022-10-22T20:00:16;16.50;;;5.30;;
16600;SDS011;34891;48.164;11.572;2022-10-22T20:05:20;11.20;;;4.57;;
16600;SDS011;34891;48.164;11.572;2022-10-22T20:10:28;12.48;;;5.82;;
16600;SDS011;34891;48.164;11.572;2022-10-22T20:15:31;11.25;;;5.00;;
16600;SDS011;34891;48.164;11.572;2022-10-22T20:20:37;11.65;;;4.28;;
16600;SDS011;34891;48.164;11.572;2022-10-22T20:25:40;8.18;;;3.40;;
16600;SDS011;34891;48.164;11.572;2022-10-22T20:30:47;9.25;;;2.58;;
16600;SDS011;34891;48.164;11.572;2022-10-22T20:36:01;6.88;;;3.40;;
16600;SDS011;34891;48.164;11.572;2022-10-22T20:41:05;9.63;;;3.80;;
16600;SDS011;34891;48.164;11.572;2022-10-22T20:46:11;6.72;;;3.33;;
16600;SDS011;34891;48.164;11.572;2022-10-22T20:51:16;10.13;;;3.28;;
16600;SDS011;34891;48.164;11.572;2022-10-22T20:56:19;7.75;;;3.20;;
16600;SDS011;34891;48.164;11.572;2022-10-22T21:01:22;8.13;;;3.60;;
16600;SDS011;34891;48.164;11.572;2022-10-22T21:06:30;6.88;;;3.17;;
16600;SDS011;34891;48.164;11.572;2022-10-22T21:11:33;7.35;;;3.10;;
16600;SDS011;34891;48.164;11.572;2022-10-22T21:16:38;6.97;;;3.63;;
16600;SDS011;34891;48.164;11.572;2022-10-22T21:21:43;7.30;;;3.13;;
16600;SDS011;34891;48.164;11.572;2022-10-22T21:26:46;5.75;;;2.47;;
16600;SDS011;34891;48.164;11.572;2022-10-22T21:31:49;2.50;;;1.40;;
16600;SDS011;34891;48.164;11.572;2022-10-22T21:36:53;5.47;;;1.98;;
16600;SDS011;34891;48.164;11.572;2022-10-22T21:46:58;5.20;;;2.40;;
16600;SDS011;34891;48.164;11.572;2022-10-22T21:52:02;5.45;;;2.20;;
16600;SDS011;34891;48.164;11.572;2022-10-22T21:57:07;4.10;;;2.25;;
16600;SDS011;34891;48.164;11.572;2022-10-22T22:02:09;1.00;;;0.75;;
16600;SDS011;34891;48.164;11.572;2022-10-22T22:07:14;1.33;;;0.90;;
16600;SDS011;34891;48.164;11.572;2022-10-22T22:12:17;3.63;;;2.05;;
16600;SDS011;34891;48.164;11.572;2022-10-22T22:17:20;4.63;;;2.00;;
16600;SDS011;34891;48.164;11.572;2022-10-22T22:22:25;4.55;;;2.30;;
16600;SDS011;34891;48.164;11.572;2022-10-22T22:27:28;2.03;;;0.90;;
16600;SDS011;34891;48.164;11.572;2022-10-22T22:32:40;3.20;;;1.48;;
16600;SDS011;34891;48.164;11.572;2022-10-22T22:37:45;1.60;;;1.10;;
16600;SDS011;34891;48.164;11.572;2022-10-22T22:42:48;6.30;;;1.35;;
16600;SDS011;34891;48.164;11.572;2022-10-22T22:47:51;3.83;;;1.90;;
16600;SDS011;34891;48.164;11.572;2022-10-22T22:52:55;2.13;;;1.20;;
16600;SDS011;34891;48.164;11.572;2022-10-22T22:57:58;4.53;;;1.80;;
16600;SDS011;34891;48.164;11.572;2022-10-22T23:03:00;2.53;;;1.20;;
16600;SDS011;34891;48.164;11.572;2022-10-22T23:08:08;2.78;;;1.55;;
16600;SDS011;34891;48.164;11.572;2022-10-22T23:13:10;3.00;;;1.30;;
16600;SDS011;34891;48.164;11.572;2022-10-22T23:18:13;4.93;;;2.55;;
16600;SDS011;34891;48.164;11.572;2022-10-22T23:23:18;1.17;;;0.70;;
16600;SDS011;34891;48.164;11.572;2022-10-22T23:28:21;3.28;;;1.30;;
16600;SDS011;34891;48.164;11.572;2022-10-22T23:33:24;2.28;;;1.13;;
16600;SDS011;34891;48.164;11.572;2022-10-22T23:38:30;0.75;;;0.63;;
16600;SDS011;34891;48.164;11.572;2022-10-22T23:43:33;4.22;;;1.70;;
16600;SDS011;34891;48.164;11.572;2022-10-22T23:48:41;11.02;;;1.63;;
16600;SDS011;34891;48.164;11.572;2022-10-22T23:53:46;1.10;;;0.88;;
16600;SDS011;34891;48.164;11.572;2022-10-22T23:58:49;3.47;;;1.67;;
